sensor_id;sensor_type;location;lat;lon;timestamp;P1;durP1;ratioP1;P2;durP2;ratioP2
4529;SDS011;2277;51.626;7.516;2023-11-22T00:00:53;8.73;;;4.23;;
4529;SDS011;2277;51.626;7.516;2023-11-22T00:03:18;9.60;;;5.30;;
4529;SDS011;2277;51.626;7.516;2023-11-22T00:05:44;7.70;;;4.30;;
4529;SDS011;2277;51.626;7.516;2023-11-22T00:08:09;7.27;;;4.97;;
4529;SDS011;2277;51.626;7.516;2023-11-22T00:10:35;7.43;;;4.20;;
4529;SDS011;2277;51.626;7.516;2023-11-22T00:13:00;6.30;;;5.40;;
4529;SDS011;2277;51.626;7.516;2023-11-22T00:15:26;5.23;;;4.23;;
4529;SDS011;2277;51.626;7.516;2023-11-22T00:17:52;7.40;;;4.40;;
4529;SDS011;2277;51.626;7.516;2023-11-22T00:20:18;5.50;;;4.23;;
4529;SDS011;2277;51.626;7.516;2023-11-22T00:22:45;11.03;;;4.77;;
4529;SDS011;2277;51.626;7.516;2023-11-22T00:25:12;6.37;;;4.40;;
4529;SDS011;2277;51.626;7.516;2023-11-22T00:27:38;6.93;;;5.10;;
4529;SDS011;2277;51.626;7.516;2023-11-22T00:30:04;6.87;;;5.27;;
4529;SDS011;2277;51.626;7.516;2023-11-22T00:32:30;5.87;;;4.60;;
4529;SDS011;2277;51.626;7.516;2023-11-22T00:34:56;5.97;;;4.47;;
4529;SDS011;2277;51.626;7.516;2023-11-22T00:37:22;7.10;;;4.77;;
4529;SDS011;2277;51.626;7.516;2023-11-22T00:39:48;5.80;;;5.13;;
4529;SDS011;2277;51.626;7.516;2023-11-22T00:42:13;6.67;;;3.87;;
4529;SDS011;2277;51.626;7.516;2023-11-22T00:44:39;6.10;;;4.30;;
4529;SDS011;2277;51.626;7.516;2023-11-22T00:47:05;5.53;;;4.67;;
4529;SDS011;2277;51.626;7.516;2023-11-22T00:49:31;5.73;;;4.83;;
4529;SDS011;2277;51.626;7.516;2023-11-22T00:51:57;5.90;;;4.73;;
4529;SDS011;2277;51.626;7.516;2023-11-22T00:54:23;7.37;;;4.83;;
4529;SDS011;2277;51.626;7.516;2023-11-22T00:56:50;7.83;;;5.20;;
4529;SDS011;2277;51.626;7.516;2023-11-22T00:59:15;6.60;;;5.87;;
4529;SDS011;2277;51.626;7.516;2023-11-22T01:01:41;9.37;;;5.00;;
4529;SDS011;2277;51.626;7.516;2023-11-22T01:04:06;15.90;;;7.03;;
4529;SDS011;2277;51.626;7.516;2023-11-22T01:06:32;6.97;;;5.13;;
4529;SDS011;2277;51.626;7.516;2023-11-22T01:08:59;5.63;;;5.10;;
4529;SDS011;2277;51.626;7.516;2023-11-22T01:11:24;5.03;;;4.47;;
4529;SDS011;2277;51.626;7.516;2023-11-22T01:13:50;8.30;;;5.30;;
4529;SDS011;2277;51.626;7.516;2023-11-22T01:16:15;6.23;;;4.97;;
4529;SDS011;2277;51.626;7.516;2023-11-22T01:18:41;5.97;;;4.40;;
4529;SDS011;2277;51.626;7.516;2023-11-22T01:21:08;6.10;;;4.53;;
4529;SDS011;2277;51.626;7.516;2023-11-22T01:23:33;6.57;;;5.13;;
4529;SDS011;2277;51.626;7.516;2023-11-22T01:25:59;7.20;;;4.27;;
4529;SDS011;2277;51.626;7.516;2023-11-22T01:28:26;7.60;;;4.53;;
4529;SDS011;2277;51.626;7.516;2023-11-22T01:30:52;7.13;;;4.33;;
4529;SDS011;2277;51.626;7.516;2023-11-22T01:33:19;5.83;;;5.20;;
4529;SDS011;2277;51.626;7.516;2023-11-22T01:35:46;6.13;;;3.50;;
4529;SDS011;2277;51.626;7.516;2023-11-22T01:38:13;10.43;;;5.23;;
4529;SDS011;2277;51.626;7.516;2023-11-22T01:40:48;6.23;;;4.77;;
4529;SDS011;2277;51.626;7.516;2023-11-22T01:43:18;6.70;;;5.13;;
4529;SDS011;2277;51.626;7.516;2023-11-22T01:45:44;16.47;;;4.70;;
4529;SDS011;2277;51.626;7.516;2023-11-22T01:48:10;5.00;;;4.37;;
4529;SDS011;2277;51.626;7.516;2023-11-22T01:50:40;7.57;;;4.70;;
4529;SDS011;2277;51.626;7.516;2023-11-22T01:53:07;8.33;;;6.67;;
4529;SDS011;2277;51.626;7.516;2023-11-22T01:55:34;8.23;;;4.70;;
4529;SDS011;2277;51.626;7.516;2023-11-22T01:58:00;5.70;;;4.47;;
4529;SDS011;2277;51.626;7.516;2023-11-22T02:00:27;6.77;;;4.00;;
4529;SDS011;2277;51.626;7.516;2023-11-22T02:02:57;8.47;;;5.40;;
4529;SDS011;2277;51.626;7.516;2023-11-22T02:05:23;5.27;;;4.70;;
4529;SDS011;2277;51.626;7.516;2023-11-22T02:07:49;10.27;;;5.27;;
4529;SDS011;2277;51.626;7.516;2023-11-22T02:10:15;6.23;;;5.40;;
4529;SDS011;2277;51.626;7.516;2023-11-22T02:12:41;5.20;;;3.57;;
4529;SDS011;2277;51.626;7.516;2023-11-22T02:15:07;7.20;;;4.03;;
4529;SDS011;2277;51.626;7.516;2023-11-22T02:17:33;6.40;;;4.60;;
4529;SDS011;2277;51.626;7.516;2023-11-22T02:19:59;5.87;;;4.17;;
4529;SDS011;2277;51.626;7.516;2023-11-22T02:22:25;5.67;;;5.07;;
4529;SDS011;2277;51.626;7.516;2023-11-22T02:24:50;6.10;;;3.90;;
4529;SDS011;2277;51.626;7.516;2023-11-22T02:27:16;5.30;;;3.60;;
4529;SDS011;2277;51.626;7.516;2023-11-22T02:29:41;4.60;;;3.63;;
4529;SDS011;2277;51.626;7.516;2023-11-22T02:32:07;3.70;;;3.37;;
4529;SDS011;2277;51.626;7.516;2023-11-22T02:34:33;4.90;;;3.80;;
4529;SDS011;2277;51.626;7.516;2023-11-22T02:36:59;5.40;;;4.60;;
4529;SDS011;2277;51.626;7.516;2023-11-22T02:39:25;4.40;;;4.00;;
4529;SDS011;2277;51.626;7.516;2023-11-22T02:41:58;4.97;;;3.97;;
4529;SDS011;2277;51.626;7.516;2023-11-22T02:44:23;5.40;;;3.90;;
4529;SDS011;2277;51.626;7.516;2023-11-22T02:46:49;4.50;;;3.70;;
4529;SDS011;2277;51.626;7.516;2023-11-22T02:49:14;5.00;;;3.93;;
4529;SDS011;2277;51.626;7.516;2023-11-22T02:51:40;6.20;;;3.73;;
4529;SDS011;2277;51.626;7.516;2023-11-22T02:54:05;9.40;;;5.10;;
4529;SDS011;2277;51.626;7.516;2023-11-22T02:56:31;13.90;;;5.33;;
4529;SDS011;2277;51.626;7.516;2023-11-22T02:58:57;7.77;;;5.27;;
4529;SDS011;2277;51.626;7.516;2023-11-22T03:01:22;6.97;;;4.67;;
4529;SDS011;2277;51.626;7.516;2023-11-22T03:03:48;6.70;;;4.60;;
4529;SDS011;2277;51.626;7.516;2023-11-22T03:06:13;4.90;;;3.93;;
4529;SDS011;2277;51.626;7.516;2023-11-22T03:08:39;6.77;;;3.77;;
4529;SDS011;2277;51.626;7.516;2023-11-22T03:11:05;6.20;;;5.20;;
4529;SDS011;2277;51.626;7.516;2023-11-22T03:13:31;7.63;;;4.50;;
4529;SDS011;2277;51.626;7.516;2023-11-22T03:15:58;6.20;;;4.70;;
4529;SDS011;2277;51.626;7.516;2023-11-22T03:18:24;7.67;;;5.70;;
4529;SDS011;2277;51.626;7.516;2023-11-22T03:20:51;4.20;;;3.40;;
4529;SDS011;2277;51.626;7.516;2023-11-22T03:23:19;8.47;;;4.47;;
4529;SDS011;2277;51.626;7.516;2023-11-22T03:25:45;6.97;;;4.10;;
4529;SDS011;2277;51.626;7.516;2023-11-22T03:28:11;5.97;;;4.00;;
4529;SDS011;2277;51.626;7.516;2023-11-22T03:30:37;7.37;;;5.10;;
4529;SDS011;2277;51.626;7.516;2023-11-22T03:33:04;5.27;;;3.90;;
4529;SDS011;2277;51.626;7.516;2023-11-22T03:35:30;6.37;;;3.90;;
4529;SDS011;2277;51.626;7.516;2023-11-22T03:37:56;5.67;;;3.80;;
4529;SDS011;2277;51.626;7.516;2023-11-22T03:40:21;3.70;;;2.97;;
4529;SDS011;2277;51.626;7.516;2023-11-22T03:42:47;3.37;;;3.07;;
4529;SDS011;2277;51.626;7.516;2023-11-22T03:45:13;6.50;;;4.37;;
4529;SDS011;2277;51.626;7.516;2023-11-22T03:47:39;6.57;;;4.43;;
4529;SDS011;2277;51.626;7.516;2023-11-22T03:50:05;6.77;;;4.00;;
4529;SDS011;2277;51.626;7.516;2023-11-22T03:52:31;7.53;;;4.03;;
4529;SDS011;2277;51.626;7.516;2023-11-22T03:54:57;5.70;;;4.10;;
4529;SDS011;2277;51.626;7.516;2023-11-22T03:57:23;5.33;;;4.00;;
4529;SDS011;2277;51.626;7.516;2023-11-22T03:59:48;7.10;;;5.87;;
4529;SDS011;2277;51.626;7.516;2023-11-22T04:02:14;5.43;;;4.03;;
4529;SDS011;2277;51.626;7.516;2023-11-22T04:04:39;3.33;;;3.03;;
4529;SDS011;2277;51.626;7.516;2023-11-22T04:07:06;5.73;;;4.70;;
4529;SDS011;2277;51.626;7.516;2023-11-22T04:09:32;5.43;;;3.53;;
4529;SDS011;2277;51.626;7.516;2023-11-22T04:11:58;7.20;;;3.73;;
4529;SDS011;2277;51.626;7.516;2023-11-22T04:14:23;7.93;;;5.77;;
4529;SDS011;2277;51.626;7.516;2023-11-22T04:16:49;4.47;;;2.67;;
4529;SDS011;2277;51.626;7.516;2023-11-22T04:19:15;5.40;;;3.30;;
4529;SDS011;2277;51.626;7.516;2023-11-22T04:21:41;5.30;;;3.83;;
4529;SDS011;2277;51.626;7.516;2023-11-22T04:24:07;3.60;;;3.27;;
4529;SDS011;2277;51.626;7.516;2023-11-22T04:26:32;5.53;;;4.10;;
4529;SDS011;2277;51.626;7.516;2023-11-22T04:28:58;7.60;;;3.70;;
4529;SDS011;2277;51.626;7.516;2023-11-22T04:31:24;6.20;;;4.10;;
4529;SDS011;2277;51.626;7.516;2023-11-22T04:33:49;6.27;;;4.43;;
4529;SDS011;2277;51.626;7.516;2023-11-22T04:36:15;8.23;;;5.23;;
4529;SDS011;2277;51.626;7.516;2023-11-22T04:38:41;5.30;;;3.97;;
4529;SDS011;2277;51.626;7.516;2023-11-22T04:41:07;7.33;;;4.60;;
4529;SDS011;2277;51.626;7.516;2023-11-22T04:43:33;5.60;;;4.50;;
4529;SDS011;2277;51.626;7.516;2023-11-22T04:45:58;4.80;;;4.23;;
4529;SDS011;2277;51.626;7.516;2023-11-22T04:48:24;6.13;;;4.27;;
4529;SDS011;2277;51.626;7.516;2023-11-22T04:50:49;5.20;;;4.33;;
4529;SDS011;2277;51.626;7.516;2023-11-22T04:53:15;5.57;;;4.17;;
4529;SDS011;2277;51.626;7.516;2023-11-22T04:55:42;7.13;;;4.70;;
4529;SDS011;2277;51.626;7.516;2023-11-22T04:58:07;5.47;;;4.13;;
4529;SDS011;2277;51.626;7.516;2023-11-22T05:00:33;7.37;;;4.70;;
4529;SDS011;2277;51.626;7.516;2023-11-22T05:02:59;5.17;;;4.47;;
4529;SDS011;2277;51.626;7.516;2023-11-22T05:05:24;5.17;;;3.80;;
4529;SDS011;2277;51.626;7.516;2023-11-22T05:07:50;8.30;;;5.30;;
4529;SDS011;2277;51.626;7.516;2023-11-22T05:10:16;5.80;;;4.97;;
4529;SDS011;2277;51.626;7.516;2023-11-22T05:12:42;9.37;;;4.73;;
4529;SDS011;2277;51.626;7.516;2023-11-22T05:15:08;6.60;;;5.03;;
4529;SDS011;2277;51.626;7.516;2023-11-22T05:17:34;10.60;;;4.27;;
4529;SDS011;2277;51.626;7.516;2023-11-22T05:20:00;6.67;;;4.10;;
4529;SDS011;2277;51.626;7.516;2023-11-22T05:22:26;5.63;;;4.57;;
4529;SDS011;2277;51.626;7.516;2023-11-22T05:24:51;5.63;;;4.30;;
4529;SDS011;2277;51.626;7.516;2023-11-22T05:27:17;7.13;;;4.40;;
4529;SDS011;2277;51.626;7.516;2023-11-22T05:29:42;11.67;;;5.07;;
4529;SDS011;2277;51.626;7.516;2023-11-22T05:32:08;4.93;;;3.73;;
4529;SDS011;2277;51.626;7.516;2023-11-22T05:34:34;5.33;;;4.50;;
4529;SDS011;2277;51.626;7.516;2023-11-22T05:37:00;8.20;;;5.00;;
4529;SDS011;2277;51.626;7.516;2023-11-22T05:39:25;5.80;;;5.10;;
4529;SDS011;2277;51.626;7.516;2023-11-22T05:41:51;7.63;;;6.03;;
4529;SDS011;2277;51.626;7.516;2023-11-22T05:44:19;5.93;;;3.93;;
4529;SDS011;2277;51.626;7.516;2023-11-22T05:46:44;6.07;;;5.40;;
4529;SDS011;2277;51.626;7.516;2023-11-22T05:49:10;7.10;;;4.70;;
4529;SDS011;2277;51.626;7.516;2023-11-22T05:51:36;9.67;;;4.50;;
4529;SDS011;2277;51.626;7.516;2023-11-22T05:54:02;5.43;;;4.43;;
4529;SDS011;2277;51.626;7.516;2023-11-22T05:56:28;6.10;;;4.50;;
4529;SDS011;2277;51.626;7.516;2023-11-22T05:58:54;7.57;;;5.17;;
4529;SDS011;2277;51.626;7.516;2023-11-22T06:01:20;9.37;;;5.10;;
4529;SDS011;2277;51.626;7.516;2023-11-22T06:03:46;5.90;;;5.37;;
4529;SDS011;2277;51.626;7.516;2023-11-22T06:06:12;5.40;;;4.90;;
4529;SDS011;2277;51.626;7.516;2023-11-22T06:08:37;7.10;;;6.30;;
4529;SDS011;2277;51.626;7.516;2023-11-22T06:11:03;5.17;;;3.80;;
4529;SDS011;2277;51.626;7.516;2023-11-22T06:13:28;7.00;;;5.20;;
4529;SDS011;2277;51.626;7.516;2023-11-22T06:15:54;6.77;;;4.27;;
4529;SDS011;2277;51.626;7.516;2023-11-22T06:18:20;12.10;;;5.37;;
4529;SDS011;2277;51.626;7.516;2023-11-22T06:20:45;7.07;;;4.57;;
4529;SDS011;2277;51.626;7.516;2023-11-22T06:23:14;6.20;;;4.10;;
4529;SDS011;2277;51.626;7.516;2023-11-22T06:25:39;5.67;;;5.17;;
4529;SDS011;2277;51.626;7.516;2023-11-22T06:28:07;4.80;;;3.80;;
4529;SDS011;2277;51.626;7.516;2023-11-22T06:30:32;7.73;;;5.97;;
4529;SDS011;2277;51.626;7.516;2023-11-22T06:33:00;7.70;;;6.97;;
4529;SDS011;2277;51.626;7.516;2023-11-22T06:35:26;4.80;;;4.40;;
4529;SDS011;2277;51.626;7.516;2023-11-22T06:37:52;5.80;;;4.53;;
4529;SDS011;2277;51.626;7.516;2023-11-22T06:40:17;4.90;;;4.40;;
4529;SDS011;2277;51.626;7.516;2023-11-22T06:42:43;7.20;;;5.50;;
4529;SDS011;2277;51.626;7.516;2023-11-22T06:45:09;5.00;;;3.83;;
4529;SDS011;2277;51.626;7.516;2023-11-22T06:47:35;7.57;;;4.03;;
4529;SDS011;2277;51.626;7.516;2023-11-22T06:50:01;6.73;;;4.90;;
4529;SDS011;2277;51.626;7.516;2023-11-22T06:52:34;6.57;;;5.20;;
4529;SDS011;2277;51.626;7.516;2023-11-22T06:55:03;5.70;;;4.50;;
4529;SDS011;2277;51.626;7.516;2023-11-22T06:57:29;13.27;;;6.90;;
4529;SDS011;2277;51.626;7.516;2023-11-22T06:59:56;11.03;;;7.83;;
4529;SDS011;2277;51.626;7.516;2023-11-22T07:02:22;6.83;;;5.33;;
4529;SDS011;2277;51.626;7.516;2023-11-22T07:04:48;7.60;;;5.27;;
4529;SDS011;2277;51.626;7.516;2023-11-22T07:07:13;6.37;;;5.27;;
4529;SDS011;2277;51.626;7.516;2023-11-22T07:09:43;6.43;;;5.10;;
4529;SDS011;2277;51.626;7.516;2023-11-22T07:12:09;6.30;;;5.23;;
4529;SDS011;2277;51.626;7.516;2023-11-22T07:14:35;11.33;;;6.50;;
4529;SDS011;2277;51.626;7.516;2023-11-22T07:17:01;5.40;;;4.80;;
4529;SDS011;2277;51.626;7.516;2023-11-22T07:19:27;8.73;;;5.70;;
4529;SDS011;2277;51.626;7.516;2023-11-22T07:21:53;6.60;;;5.03;;
4529;SDS011;2277;51.626;7.516;2023-11-22T07:24:19;7.17;;;6.27;;
4529;SDS011;2277;51.626;7.516;2023-11-22T07:26:46;6.87;;;5.83;;
4529;SDS011;2277;51.626;7.516;2023-11-22T07:29:12;8.60;;;6.03;;
4529;SDS011;2277;51.626;7.516;2023-11-22T07:31:38;7.57;;;5.80;;
4529;SDS011;2277;51.626;7.516;2023-11-22T07:34:04;7.27;;;4.80;;
4529;SDS011;2277;51.626;7.516;2023-11-22T07:36:31;6.93;;;6.23;;
4529;SDS011;2277;51.626;7.516;2023-11-22T07:38:56;6.50;;;5.33;;
4529;SDS011;2277;51.626;7.516;2023-11-22T07:41:22;5.03;;;4.10;;
4529;SDS011;2277;51.626;7.516;2023-11-22T07:43:48;6.17;;;5.50;;
4529;SDS011;2277;51.626;7.516;2023-11-22T07:46:14;4.97;;;3.87;;
4529;SDS011;2277;51.626;7.516;2023-11-22T07:48:42;6.47;;;5.00;;
4529;SDS011;2277;51.626;7.516;2023-11-22T07:51:08;6.37;;;5.77;;
4529;SDS011;2277;51.626;7.516;2023-11-22T07:53:34;8.67;;;5.80;;
4529;SDS011;2277;51.626;7.516;2023-11-22T07:56:00;6.83;;;6.23;;
4529;SDS011;2277;51.626;7.516;2023-11-22T07:58:29;7.00;;;5.10;;
4529;SDS011;2277;51.626;7.516;2023-11-22T08:00:59;10.63;;;6.40;;
4529;SDS011;2277;51.626;7.516;2023-11-22T08:03:25;9.00;;;4.97;;
4529;SDS011;2277;51.626;7.516;2023-11-22T08:05:53;9.20;;;6.33;;
4529;SDS011;2277;51.626;7.516;2023-11-22T08:08:21;8.73;;;4.83;;
4529;SDS011;2277;51.626;7.516;2023-11-22T08:10:47;8.87;;;5.00;;
4529;SDS011;2277;51.626;7.516;2023-11-22T08:13:14;7.47;;;6.77;;
4529;SDS011;2277;51.626;7.516;2023-11-22T08:15:40;11.47;;;6.93;;
4529;SDS011;2277;51.626;7.516;2023-11-22T08:18:06;9.53;;;5.77;;
4529;SDS011;2277;51.626;7.516;2023-11-22T08:20:32;4.83;;;4.37;;
4529;SDS011;2277;51.626;7.516;2023-11-22T08:22:57;8.43;;;6.37;;
4529;SDS011;2277;51.626;7.516;2023-11-22T08:25:23;10.97;;;6.10;;
4529;SDS011;2277;51.626;7.516;2023-11-22T08:27:49;9.83;;;5.30;;
4529;SDS011;2277;51.626;7.516;2023-11-22T08:30:14;6.77;;;5.57;;
4529;SDS011;2277;51.626;7.516;2023-11-22T08:32:44;8.97;;;5.40;;
4529;SDS011;2277;51.626;7.516;2023-11-22T08:35:13;8.30;;;5.40;;
4529;SDS011;2277;51.626;7.516;2023-11-22T08:37:40;5.30;;;4.77;;
4529;SDS011;2277;51.626;7.516;2023-11-22T08:40:09;7.20;;;6.13;;
4529;SDS011;2277;51.626;7.516;2023-11-22T08:42:45;9.03;;;5.67;;
4529;SDS011;2277;51.626;7.516;2023-11-22T08:45:11;11.77;;;5.40;;
4529;SDS011;2277;51.626;7.516;2023-11-22T08:47:37;6.80;;;4.80;;
4529;SDS011;2277;51.626;7.516;2023-11-22T08:50:04;7.00;;;5.20;;
4529;SDS011;2277;51.626;7.516;2023-11-22T08:52:31;6.77;;;5.27;;
4529;SDS011;2277;51.626;7.516;2023-11-22T08:54:57;5.60;;;5.00;;
4529;SDS011;2277;51.626;7.516;2023-11-22T08:57:22;12.53;;;5.40;;
4529;SDS011;2277;51.626;7.516;2023-11-22T08:59:48;5.20;;;4.67;;
4529;SDS011;2277;51.626;7.516;2023-11-22T09:02:14;7.50;;;5.47;;
4529;SDS011;2277;51.626;7.516;2023-11-22T09:04:40;6.90;;;4.67;;
4529;SDS011;2277;51.626;7.516;2023-11-22T09:07:06;7.17;;;5.00;;
4529;SDS011;2277;51.626;7.516;2023-11-22T09:09:32;7.20;;;5.33;;
4529;SDS011;2277;51.626;7.516;2023-11-22T09:11:59;8.93;;;5.33;;
4529;SDS011;2277;51.626;7.516;2023-11-22T09:14:26;10.20;;;6.10;;
4529;SDS011;2277;51.626;7.516;2023-11-22T09:16:51;9.20;;;6.90;;
4529;SDS011;2277;51.626;7.516;2023-11-22T09:19:23;9.73;;;6.50;;
4529;SDS011;2277;51.626;7.516;2023-11-22T09:21:50;11.00;;;4.90;;
4529;SDS011;2277;51.626;7.516;2023-11-22T09:24:16;5.77;;;5.07;;
4529;SDS011;2277;51.626;7.516;2023-11-22T09:26:42;10.80;;;5.60;;
4529;SDS011;2277;51.626;7.516;2023-11-22T09:29:08;7.97;;;4.60;;
4529;SDS011;2277;51.626;7.516;2023-11-22T09:31:35;10.60;;;6.20;;
4529;SDS011;2277;51.626;7.516;2023-11-22T09:34:00;9.47;;;6.30;;
4529;SDS011;2277;51.626;7.516;2023-11-22T09:36:28;8.40;;;5.73;;
4529;SDS011;2277;51.626;7.516;2023-11-22T09:38:57;6.33;;;5.40;;
4529;SDS011;2277;51.626;7.516;2023-11-22T09:41:23;4.53;;;3.40;;
4529;SDS011;2277;51.626;7.516;2023-11-22T09:43:50;6.23;;;4.00;;
4529;SDS011;2277;51.626;7.516;2023-11-22T09:46:17;5.63;;;4.00;;
4529;SDS011;2277;51.626;7.516;2023-11-22T09:48:45;3.63;;;3.30;;
4529;SDS011;2277;51.626;7.516;2023-11-22T09:51:26;4.90;;;4.40;;
4529;SDS011;2277;51.626;7.516;2023-11-22T09:56:25;7.50;;;5.10;;
4529;SDS011;2277;51.626;7.516;2023-11-22T09:58:52;8.77;;;4.70;;
4529;SDS011;2277;51.626;7.516;2023-11-22T10:01:22;6.97;;;5.47;;
4529;SDS011;2277;51.626;7.516;2023-11-22T10:03:49;5.80;;;4.60;;
4529;SDS011;2277;51.626;7.516;2023-11-22T10:06:15;4.80;;;4.20;;
4529;SDS011;2277;51.626;7.516;2023-11-22T10:08:42;6.97;;;4.67;;
4529;SDS011;2277;51.626;7.516;2023-11-22T10:11:11;7.27;;;4.13;;
4529;SDS011;2277;51.626;7.516;2023-11-22T10:13:49;5.80;;;3.87;;
4529;SDS011;2277;51.626;7.516;2023-11-22T10:16:16;6.43;;;5.63;;
4529;SDS011;2277;51.626;7.516;2023-11-22T10:18:43;5.43;;;4.77;;
4529;SDS011;2277;51.626;7.516;2023-11-22T10:23:49;7.27;;;5.40;;
4529;SDS011;2277;51.626;7.516;2023-11-22T10:26:18;5.30;;;4.17;;
4529;SDS011;2277;51.626;7.516;2023-11-22T10:28:44;5.40;;;4.17;;
4529;SDS011;2277;51.626;7.516;2023-11-22T10:31:10;5.00;;;3.70;;
4529;SDS011;2277;51.626;7.516;2023-11-22T10:33:39;5.37;;;4.30;;
4529;SDS011;2277;51.626;7.516;2023-11-22T10:36:08;7.00;;;4.47;;
4529;SDS011;2277;51.626;7.516;2023-11-22T10:38:34;7.07;;;4.80;;
4529;SDS011;2277;51.626;7.516;2023-11-22T10:41:03;5.47;;;4.83;;
4529;SDS011;2277;51.626;7.516;2023-11-22T10:43:30;8.20;;;3.77;;
4529;SDS011;2277;51.626;7.516;2023-11-22T10:45:59;9.07;;;8.17;;
4529;SDS011;2277;51.626;7.516;2023-11-22T10:48:27;6.27;;;3.97;;
4529;SDS011;2277;51.626;7.516;2023-11-22T10:50:54;6.07;;;4.63;;
4529;SDS011;2277;51.626;7.516;2023-11-22T10:53:22;9.53;;;4.73;;
4529;SDS011;2277;51.626;7.516;2023-11-22T10:55:59;5.50;;;3.47;;
4529;SDS011;2277;51.626;7.516;2023-11-22T10:58:50;4.80;;;3.43;;
4529;SDS011;2277;51.626;7.516;2023-11-22T11:01:17;5.20;;;4.67;;
4529;SDS011;2277;51.626;7.516;2023-11-22T11:04:01;6.30;;;4.23;;
4529;SDS011;2277;51.626;7.516;2023-11-22T11:06:32;7.83;;;4.40;;
4529;SDS011;2277;51.626;7.516;2023-11-22T11:08:59;6.50;;;4.83;;
4529;SDS011;2277;51.626;7.516;2023-11-22T11:11:27;6.63;;;4.80;;
4529;SDS011;2277;51.626;7.516;2023-11-22T11:13:54;6.87;;;4.30;;
4529;SDS011;2277;51.626;7.516;2023-11-22T11:16:20;4.10;;;3.70;;
4529;SDS011;2277;51.626;7.516;2023-11-22T11:18:47;9.17;;;4.00;;
4529;SDS011;2277;51.626;7.516;2023-11-22T11:21:14;6.70;;;4.70;;
4529;SDS011;2277;51.626;7.516;2023-11-22T11:23:40;9.40;;;4.57;;
4529;SDS011;2277;51.626;7.516;2023-11-22T11:26:15;4.07;;;3.20;;
4529;SDS011;2277;51.626;7.516;2023-11-22T11:28:43;3.70;;;3.30;;
4529;SDS011;2277;51.626;7.516;2023-11-22T11:31:13;6.67;;;3.67;;
4529;SDS011;2277;51.626;7.516;2023-11-22T11:36:29;5.13;;;3.03;;
4529;SDS011;2277;51.626;7.516;2023-11-22T11:38:59;5.87;;;4.77;;
4529;SDS011;2277;51.626;7.516;2023-11-22T11:41:40;4.83;;;3.50;;
4529;SDS011;2277;51.626;7.516;2023-11-22T11:44:07;3.50;;;2.67;;
4529;SDS011;2277;51.626;7.516;2023-11-22T11:46:34;4.90;;;2.90;;
4529;SDS011;2277;51.626;7.516;2023-11-22T11:49:02;4.43;;;3.03;;
4529;SDS011;2277;51.626;7.516;2023-11-22T11:51:33;7.33;;;3.00;;
4529;SDS011;2277;51.626;7.516;2023-11-22T11:53:58;4.37;;;2.50;;
4529;SDS011;2277;51.626;7.516;2023-11-22T11:56:24;3.03;;;2.10;;
4529;SDS011;2277;51.626;7.516;2023-11-22T11:58:51;4.20;;;3.10;;
4529;SDS011;2277;51.626;7.516;2023-11-22T12:01:22;4.50;;;2.87;;
4529;SDS011;2277;51.626;7.516;2023-11-22T12:03:48;2.97;;;2.00;;
4529;SDS011;2277;51.626;7.516;2023-11-22T12:06:17;2.67;;;2.40;;
4529;SDS011;2277;51.626;7.516;2023-11-22T12:08:44;4.73;;;3.03;;
4529;SDS011;2277;51.626;7.516;2023-11-22T12:11:10;19.23;;;4.07;;
4529;SDS011;2277;51.626;7.516;2023-11-22T12:13:37;5.63;;;3.50;;
4529;SDS011;2277;51.626;7.516;2023-11-22T12:16:11;3.60;;;2.97;;
4529;SDS011;2277;51.626;7.516;2023-11-22T12:21:15;10.50;;;3.27;;
4529;SDS011;2277;51.626;7.516;2023-11-22T12:23:44;5.50;;;3.40;;
4529;SDS011;2277;51.626;7.516;2023-11-22T12:26:12;5.27;;;3.20;;
4529;SDS011;2277;51.626;7.516;2023-11-22T12:28:45;3.27;;;2.97;;
4529;SDS011;2277;51.626;7.516;2023-11-22T12:31:13;3.97;;;3.20;;
4529;SDS011;2277;51.626;7.516;2023-11-22T12:33:42;7.50;;;3.37;;
4529;SDS011;2277;51.626;7.516;2023-11-22T12:36:10;5.20;;;3.13;;
4529;SDS011;2277;51.626;7.516;2023-11-22T12:38:40;5.90;;;3.07;;
4529;SDS011;2277;51.626;7.516;2023-11-22T12:41:06;4.60;;;2.97;;
4529;SDS011;2277;51.626;7.516;2023-11-22T12:43:35;5.60;;;3.30;;
4529;SDS011;2277;51.626;7.516;2023-11-22T12:46:04;3.67;;;2.50;;
4529;SDS011;2277;51.626;7.516;2023-11-22T12:48:41;4.50;;;3.17;;
4529;SDS011;2277;51.626;7.516;2023-11-22T12:51:16;3.97;;;3.40;;
4529;SDS011;2277;51.626;7.516;2023-11-22T12:53:45;3.07;;;2.77;;
4529;SDS011;2277;51.626;7.516;2023-11-22T12:56:11;5.20;;;2.90;;
4529;SDS011;2277;51.626;7.516;2023-11-22T12:58:37;2.70;;;2.27;;
4529;SDS011;2277;51.626;7.516;2023-11-22T13:01:03;3.63;;;2.23;;
4529;SDS011;2277;51.626;7.516;2023-11-22T13:03:29;4.07;;;2.50;;
4529;SDS011;2277;51.626;7.516;2023-11-22T13:05:56;3.23;;;2.40;;
4529;SDS011;2277;51.626;7.516;2023-11-22T13:08:22;2.80;;;2.10;;
4529;SDS011;2277;51.626;7.516;2023-11-22T13:10:50;4.00;;;2.30;;
4529;SDS011;2277;51.626;7.516;2023-11-22T13:13:21;5.30;;;2.17;;
4529;SDS011;2277;51.626;7.516;2023-11-22T13:15:47;6.17;;;2.10;;
4529;SDS011;2277;51.626;7.516;2023-11-22T13:18:14;6.33;;;2.33;;
4529;SDS011;2277;51.626;7.516;2023-11-22T13:20:41;3.13;;;2.33;;
4529;SDS011;2277;51.626;7.516;2023-11-22T13:23:08;2.40;;;2.20;;
4529;SDS011;2277;51.626;7.516;2023-11-22T13:25:33;7.10;;;2.97;;
4529;SDS011;2277;51.626;7.516;2023-11-22T13:27:59;3.47;;;2.60;;
4529;SDS011;2277;51.626;7.516;2023-11-22T13:30:25;8.10;;;2.90;;
4529;SDS011;2277;51.626;7.516;2023-11-22T13:32:52;6.30;;;3.27;;
4529;SDS011;2277;51.626;7.516;2023-11-22T13:35:18;4.40;;;2.80;;
4529;SDS011;2277;51.626;7.516;2023-11-22T13:37:44;3.47;;;2.33;;
4529;SDS011;2277;51.626;7.516;2023-11-22T13:40:13;3.60;;;3.03;;
4529;SDS011;2277;51.626;7.516;2023-11-22T13:42:40;4.57;;;2.40;;
4529;SDS011;2277;51.626;7.516;2023-11-22T13:45:07;4.50;;;2.53;;
4529;SDS011;2277;51.626;7.516;2023-11-22T13:47:33;7.13;;;3.27;;
4529;SDS011;2277;51.626;7.516;2023-11-22T13:49:58;8.87;;;3.43;;
4529;SDS011;2277;51.626;7.516;2023-11-22T13:52:24;5.00;;;3.17;;
4529;SDS011;2277;51.626;7.516;2023-11-22T13:54:50;6.77;;;3.57;;
4529;SDS011;2277;51.626;7.516;2023-11-22T13:57:20;4.53;;;3.53;;
4529;SDS011;2277;51.626;7.516;2023-11-22T13:59:45;3.37;;;3.07;;
4529;SDS011;2277;51.626;7.516;2023-11-22T14:02:11;6.87;;;3.40;;
4529;SDS011;2277;51.626;7.516;2023-11-22T14:04:37;5.93;;;3.63;;
4529;SDS011;2277;51.626;7.516;2023-11-22T14:07:04;4.20;;;3.13;;
4529;SDS011;2277;51.626;7.516;2023-11-22T14:09:29;4.67;;;3.10;;
4529;SDS011;2277;51.626;7.516;2023-11-22T14:11:55;10.23;;;3.60;;
4529;SDS011;2277;51.626;7.516;2023-11-22T14:14:20;7.70;;;4.33;;
4529;SDS011;2277;51.626;7.516;2023-11-22T14:16:46;7.23;;;3.30;;
4529;SDS011;2277;51.626;7.516;2023-11-22T14:19:13;5.10;;;3.50;;
4529;SDS011;2277;51.626;7.516;2023-11-22T14:21:39;6.33;;;3.90;;
4529;SDS011;2277;51.626;7.516;2023-11-22T14:24:05;5.77;;;3.27;;
4529;SDS011;2277;51.626;7.516;2023-11-22T14:26:31;4.47;;;3.20;;
4529;SDS011;2277;51.626;7.516;2023-11-22T14:28:56;4.43;;;3.63;;
4529;SDS011;2277;51.626;7.516;2023-11-22T14:31:22;6.20;;;3.63;;
4529;SDS011;2277;51.626;7.516;2023-11-22T14:33:48;5.17;;;3.90;;
4529;SDS011;2277;51.626;7.516;2023-11-22T14:36:13;7.73;;;3.70;;
4529;SDS011;2277;51.626;7.516;2023-11-22T14:38:41;4.60;;;3.70;;
4529;SDS011;2277;51.626;7.516;2023-11-22T14:41:07;4.53;;;2.67;;
4529;SDS011;2277;51.626;7.516;2023-11-22T14:43:35;3.60;;;2.73;;
4529;SDS011;2277;51.626;7.516;2023-11-22T14:46:00;3.20;;;2.47;;
4529;SDS011;2277;51.626;7.516;2023-11-22T14:48:26;3.13;;;2.70;;
4529;SDS011;2277;51.626;7.516;2023-11-22T14:50:52;7.97;;;2.80;;
4529;SDS011;2277;51.626;7.516;2023-11-22T14:53:17;7.23;;;3.00;;
4529;SDS011;2277;51.626;7.516;2023-11-22T14:55:43;5.20;;;2.87;;
4529;SDS011;2277;51.626;7.516;2023-11-22T14:58:08;3.77;;;2.57;;
4529;SDS011;2277;51.626;7.516;2023-11-22T15:00:34;4.40;;;3.00;;
4529;SDS011;2277;51.626;7.516;2023-11-22T15:03:01;3.60;;;2.27;;
4529;SDS011;2277;51.626;7.516;2023-11-22T15:05:27;3.80;;;2.63;;
4529;SDS011;2277;51.626;7.516;2023-11-22T15:07:53;2.73;;;2.00;;
4529;SDS011;2277;51.626;7.516;2023-11-22T15:10:22;4.60;;;2.50;;
4529;SDS011;2277;51.626;7.516;2023-11-22T15:12:49;9.47;;;4.20;;
4529;SDS011;2277;51.626;7.516;2023-11-22T15:15:15;3.73;;;2.07;;
4529;SDS011;2277;51.626;7.516;2023-11-22T15:17:43;5.27;;;2.70;;
4529;SDS011;2277;51.626;7.516;2023-11-22T15:20:09;3.90;;;2.50;;
4529;SDS011;2277;51.626;7.516;2023-11-22T15:22:36;5.90;;;2.87;;